createdAt,value
2018-07-27T00:01:42.339Z,29.60
2018-07-27T00:04:11.097Z,29.60
2018-07-27T00:06:39.726Z,29.59
2018-07-27T00:09:10.645Z,29.58
2018-07-27T00:11:39.327Z,29.57
2018-07-27T00:14:08.001Z,29.58
2018-07-27T00:16:36.540Z,29.57
2018-07-27T00:19:05.669Z,29.56
2018-07-27T00:21:34.983Z,29.56
2018-07-27T00:24:03.519Z,29.56
2018-07-27T00:26:31.995Z,29.56
2018-07-27T00:29:00.615Z,29.55
2018-07-27T00:31:29.139Z,29.53
2018-07-27T00:33:57.681Z,29.54
2018-07-27T00:36:26.200Z,29.56
2018-07-27T00:38:54.767Z,29.57
2018-07-27T00:41:23.432Z,29.56
2018-07-27T00:43:51.980Z,29.57
2018-07-27T00:46:20.469Z,29.56
2018-07-27T00:48:48.960Z,29.56
2018-07-27T00:51:17.451Z,29.55
2018-07-27T00:53:46.069Z,29.56
2018-07-27T00:56:14.563Z,29.55
2018-07-27T00:58:43.387Z,29.54
2018-07-27T01:01:11.863Z,29.54
2018-07-27T01:03:40.360Z,29.53
2018-07-27T01:06:08.879Z,29.53
2018-07-27T01:08:37.356Z,29.53
2018-07-27T01:11:06.127Z,29.52
2018-07-27T01:13:34.987Z,29.53
2018-07-27T01:16:03.577Z,29.51
2018-07-27T01:18:32.207Z,29.51
2018-07-27T01:21:00.778Z,29.51
2018-07-27T01:23:29.277Z,29.49
2018-07-27T01:25:57.799Z,29.50
2018-07-27T01:28:26.304Z,29.52
2018-07-27T01:30:54.764Z,29.52
2018-07-27T01:33:23.364Z,29.51
2018-07-27T01:35:51.975Z,29.50
2018-07-27T01:38:20.741Z,29.51
2018-07-27T01:40:49.536Z,29.50
2018-07-27T01:43:18.147Z,29.49
2018-07-27T01:45:46.798Z,29.48
2018-07-27T01:48:15.302Z,29.46
2018-07-27T01:50:43.918Z,29.44
2018-07-27T01:53:12.553Z,29.44
2018-07-27T01:55:41.193Z,29.44
2018-07-27T01:58:09.880Z,29.42
2018-07-27T02:00:38.354Z,29.40
2018-07-27T02:03:07.116Z,29.39
2018-07-27T02:05:35.777Z,29.39
2018-07-27T02:08:04.292Z,29.37
2018-07-27T02:10:32.840Z,29.38
2018-07-27T02:13:01.450Z,29.38
2018-07-27T02:15:30.217Z,29.36
2018-07-27T02:17:58.720Z,29.35
2018-07-27T02:20:27.272Z,29.33
2018-07-27T02:22:56.053Z,29.34
2018-07-27T02:25:24.647Z,29.32
2018-07-27T02:27:53.402Z,29.30
2018-07-27T02:30:21.957Z,29.31
2018-07-27T02:32:50.572Z,29.30
2018-07-27T02:35:19.299Z,29.30
2018-07-27T02:37:47.825Z,29.30
2018-07-27T02:40:16.353Z,29.32
2018-07-27T02:42:44.909Z,29.30
2018-07-27T02:45:13.413Z,28.80
2018-07-27T02:47:46.145Z,29.30
2018-07-27T02:50:14.717Z,18.46
2018-07-27T02:52:43.297Z,29.29
2018-07-27T02:55:11.824Z,29.29
2018-07-27T02:57:40.366Z,28.72
2018-07-27T03:00:09.068Z,29.28
2018-07-27T03:02:37.568Z,29.27
2018-07-27T03:05:06.740Z,29.28
2018-07-27T03:07:35.470Z,29.28
2018-07-27T03:10:04.233Z,23.69
2018-07-27T03:12:32.792Z,29.25
2018-07-27T03:15:01.313Z,29.26
2018-07-27T03:17:29.844Z,29.24
2018-07-27T03:19:58.394Z,29.24
2018-07-27T03:22:26.924Z,29.24
2018-07-27T03:24:55.546Z,29.23
2018-07-27T03:27:24.062Z,29.23
2018-07-27T03:29:52.615Z,29.22
2018-07-27T03:32:21.187Z,29.21
2018-07-27T03:34:49.777Z,29.20
2018-07-27T03:37:18.263Z,29.22
2018-07-27T03:39:46.753Z,29.20
2018-07-27T03:42:15.345Z,29.20
2018-07-27T03:44:43.844Z,29.21
2018-07-27T03:47:12.372Z,29.20
2018-07-27T03:49:40.936Z,29.19
2018-07-27T03:52:09.530Z,29.20
2018-07-27T03:54:38.017Z,29.20
2018-07-27T03:57:06.545Z,29.22
2018-07-27T03:59:35.044Z,29.23
2018-07-27T04:02:03.584Z,29.23
2018-07-27T04:04:32.121Z,29.21
2018-07-27T04:07:00.646Z,29.23
2018-07-27T04:09:29.358Z,29.22
2018-07-27T04:11:57.961Z,29.21
2018-07-27T04:14:26.483Z,29.22
2018-07-27T04:16:55.010Z,28.85
2018-07-27T04:19:23.480Z,29.22
2018-07-27T04:21:51.980Z,29.10
2018-07-27T04:24:20.471Z,28.13
2018-07-27T04:26:48.991Z,27.35
2018-07-27T04:29:17.612Z,26.70
2018-07-27T04:31:46.188Z,26.45
2018-07-27T04:34:14.704Z,26.09
2018-07-27T04:36:43.167Z,25.77
2018-07-27T04:39:12.250Z,25.56
2018-07-27T04:41:40.719Z,24.69
2018-07-27T04:44:09.184Z,25.57
2018-07-27T04:46:37.713Z,25.52
2018-07-27T04:49:06.291Z,25.64
2018-07-27T04:51:34.761Z,25.65
2018-07-27T04:54:03.260Z,25.65
2018-07-27T04:56:31.877Z,25.56
2018-07-27T04:59:00.287Z,25.36
2018-07-27T05:01:28.852Z,20.18
2018-07-27T05:03:57.379Z,25.32
2018-07-27T05:06:25.953Z,25.14
2018-07-27T05:08:59.675Z,25.07
2018-07-27T05:11:28.344Z,24.93
2018-07-27T05:13:56.987Z,24.90
2018-07-27T05:16:25.674Z,24.81
2018-07-27T05:18:54.157Z,24.79
2018-07-27T05:21:22.647Z,24.79
2018-07-27T05:23:51.123Z,24.71
2018-07-27T05:26:19.608Z,24.66
2018-07-27T05:28:48.116Z,24.70
2018-07-27T05:31:16.611Z,24.80
2018-07-27T05:33:45.097Z,24.88
2018-07-27T05:36:13.560Z,24.95
2018-07-27T05:38:42.057Z,24.89
2018-07-27T05:41:10.576Z,24.86
2018-07-27T05:43:39.260Z,24.81
2018-07-27T05:46:07.737Z,24.92
2018-07-27T05:48:36.213Z,25.04
2018-07-27T05:51:04.912Z,25.07
2018-07-27T05:53:33.476Z,25.16
2018-07-27T05:56:02.321Z,25.23
2018-07-27T05:58:30.876Z,25.30
2018-07-27T06:00:59.485Z,25.38
2018-07-27T06:03:27.950Z,25.01
2018-07-27T06:05:56.403Z,25.47
2018-07-27T06:08:24.872Z,25.52
2018-07-27T06:10:53.364Z,25.57
2018-07-27T06:13:21.866Z,25.64
2018-07-27T06:15:50.365Z,25.73
2018-07-27T06:18:18.827Z,25.80
2018-07-27T06:20:47.372Z,25.81
2018-07-27T06:23:15.851Z,25.83
2018-07-27T06:25:45.693Z,25.88
2018-07-27T06:28:14.239Z,25.94
2018-07-27T06:30:42.711Z,25.84
2018-07-27T06:33:11.185Z,25.94
2018-07-27T06:35:39.661Z,25.96
2018-07-27T06:38:08.136Z,25.88
2018-07-27T06:40:36.612Z,25.93
2018-07-27T06:43:05.092Z,25.95
2018-07-27T06:45:33.781Z,26.02
2018-07-27T06:48:02.425Z,26.15
2018-07-27T06:50:30.995Z,26.12
2018-07-27T06:52:59.843Z,26.11
2018-07-27T06:55:28.760Z,26.11
2018-07-27T06:57:57.649Z,26.18
2018-07-27T07:00:26.274Z,26.32
2018-07-27T07:02:54.811Z,26.35
2018-07-27T07:05:23.320Z,26.30
2018-07-27T07:07:52.047Z,26.26
2018-07-27T07:10:20.665Z,26.37
2018-07-27T07:12:49.649Z,26.46
2018-07-27T07:15:18.283Z,26.51
2018-07-27T07:17:46.901Z,26.53
2018-07-27T07:20:15.565Z,25.29
2018-07-27T07:22:44.185Z,26.67
2018-07-27T07:25:12.965Z,26.72
2018-07-27T07:27:41.640Z,26.75
2018-07-27T07:30:10.298Z,26.83
2018-07-27T07:32:39.035Z,26.80
2018-07-27T07:35:07.740Z,26.73
2018-07-27T07:37:37.405Z,26.79
2018-07-27T07:40:06.680Z,26.82
2018-07-27T07:42:35.538Z,26.82
2018-07-27T07:45:04.092Z,26.88
2018-07-27T07:47:32.843Z,26.91
2018-07-27T07:50:01.412Z,26.91
2018-07-27T07:52:30.138Z,26.93
2018-07-27T07:54:58.725Z,26.98
2018-07-27T07:57:27.340Z,27.00
2018-07-27T07:59:56.135Z,27.03
2018-07-27T08:02:25.146Z,27.13
2018-07-27T08:04:54.028Z,27.18
2018-07-27T08:07:22.824Z,27.15
2018-07-27T08:09:51.616Z,27.17
2018-07-27T08:12:20.221Z,27.23
2018-07-27T08:14:49.035Z,27.29
2018-07-27T08:17:17.989Z,27.36
2018-07-27T08:19:46.569Z,27.40
2018-07-27T08:22:15.189Z,27.46
2018-07-27T08:24:43.848Z,27.39
2018-07-27T08:27:12.396Z,27.49
2018-07-27T08:29:43.039Z,27.62
2018-07-27T08:32:11.892Z,27.68
2018-07-27T08:34:40.632Z,27.66
2018-07-27T08:37:09.519Z,27.66
2018-07-27T08:39:42.392Z,27.81
2018-07-27T08:42:11.192Z,27.84
2018-07-27T08:44:41.107Z,27.89
2018-07-27T08:47:09.936Z,27.88
2018-07-27T08:49:38.505Z,27.91
2018-07-27T08:52:07.041Z,27.95
2018-07-27T08:54:35.732Z,27.99
2018-07-27T08:57:04.561Z,27.99
2018-07-27T08:59:33.215Z,27.98
2018-07-27T09:02:01.829Z,27.95
2018-07-27T09:04:30.398Z,27.99
2018-07-27T09:06:59.523Z,27.97
2018-07-27T09:09:28.128Z,28.01
2018-07-27T09:11:56.924Z,28.10
2018-07-27T09:14:25.603Z,28.11
2018-07-27T09:16:54.344Z,28.14
2018-07-27T09:19:22.995Z,28.14
2018-07-27T09:21:52.222Z,28.21
2018-07-27T09:24:20.997Z,28.26
2018-07-27T09:26:49.537Z,28.30
2018-07-27T09:29:19.094Z,28.36
2018-07-27T09:31:47.681Z,28.41
2018-07-27T09:34:16.668Z,28.47
2018-07-27T09:36:45.299Z,28.56
2018-07-27T09:39:13.941Z,28.62
2018-07-27T09:41:42.504Z,28.58
2018-07-27T09:44:11.133Z,28.59
2018-07-27T09:46:39.866Z,28.56
2018-07-27T09:49:08.344Z,28.71
2018-07-27T09:51:37.154Z,28.79
2018-07-27T09:54:05.889Z,28.81
2018-07-27T09:56:34.605Z,28.86
2018-07-27T09:59:03.348Z,28.86
2018-07-27T10:01:32.004Z,28.88
2018-07-27T10:04:00.855Z,28.87
2018-07-27T10:06:29.479Z,28.83
2018-07-27T10:08:58.043Z,28.85
2018-07-27T10:11:26.672Z,28.80
2018-07-27T10:13:55.480Z,28.89
2018-07-27T10:16:24.114Z,28.94
2018-07-27T10:18:52.905Z,29.02
2018-07-27T10:21:21.677Z,29.09
2018-07-27T10:23:50.197Z,29.08
2018-07-27T10:26:18.747Z,29.14
2018-07-27T10:28:47.248Z,29.09
2018-07-27T10:31:15.926Z,29.11
2018-07-27T10:33:44.595Z,29.09
2018-07-27T10:36:13.317Z,29.02
2018-07-27T10:38:42.026Z,28.78
2018-07-27T10:41:10.587Z,28.72
2018-07-27T10:43:39.047Z,28.79
2018-07-27T10:46:07.917Z,28.79
2018-07-27T10:48:36.459Z,28.87
2018-07-27T10:51:05.196Z,28.95
2018-07-27T10:53:33.916Z,29.03
2018-07-27T10:56:02.568Z,29.03
2018-07-27T10:58:31.220Z,28.85
2018-07-27T11:00:59.795Z,28.84
2018-07-27T11:03:28.380Z,28.93
2018-07-27T11:05:57.044Z,28.95
2018-07-27T11:08:25.927Z,29.09
2018-07-27T11:10:54.471Z,29.16
2018-07-27T11:13:23.024Z,29.34
2018-07-27T11:15:51.779Z,29.41
2018-07-27T11:18:20.329Z,29.43
2018-07-27T11:20:48.978Z,29.50
2018-07-27T11:23:17.801Z,29.53
2018-07-27T11:25:46.315Z,29.53
2018-07-27T11:28:14.799Z,29.59
2018-07-27T11:30:43.308Z,29.68
2018-07-27T11:33:11.796Z,29.68
2018-07-27T11:35:40.315Z,29.69
2018-07-27T11:38:08.916Z,29.70
2018-07-27T11:40:37.401Z,29.66
2018-07-27T11:43:06.460Z,29.71
2018-07-27T11:45:34.911Z,29.82
2018-07-27T11:48:03.369Z,29.74
2018-07-27T11:50:31.837Z,29.79
2018-07-27T11:53:00.296Z,29.74
2018-07-27T11:55:28.759Z,29.65
2018-07-27T11:57:57.515Z,29.66
2018-07-27T12:00:26.012Z,29.69
2018-07-27T12:02:54.489Z,29.82
2018-07-27T12:05:23.711Z,29.81
2018-07-27T12:07:52.178Z,29.85
2018-07-27T12:10:20.633Z,29.90
2018-07-27T12:12:49.101Z,29.93
2018-07-27T12:15:17.849Z,29.98
2018-07-27T12:17:46.253Z,30.03
2018-07-27T12:20:14.763Z,30.11
2018-07-27T12:22:43.220Z,30.16
2018-07-27T12:25:12.014Z,30.21
2018-07-27T12:27:40.500Z,30.23
2018-07-27T12:30:08.966Z,30.19
2018-07-27T12:32:37.572Z,30.03
2018-07-27T12:35:06.019Z,30.07
2018-07-27T12:37:34.569Z,30.15
2018-07-27T12:40:03.011Z,30.35
2018-07-27T12:42:31.515Z,30.43
2018-07-27T12:44:59.973Z,30.51
2018-07-27T12:47:28.452Z,30.59
2018-07-27T12:49:56.918Z,30.53
2018-07-27T12:52:25.381Z,30.51
2018-07-27T12:54:53.827Z,30.53
2018-07-27T12:57:22.290Z,30.55
2018-07-27T12:59:50.787Z,30.62
2018-07-27T13:02:19.265Z,30.65
2018-07-27T13:04:47.769Z,30.68
2018-07-27T13:07:16.233Z,30.62
2018-07-27T13:09:44.704Z,30.61
2018-07-27T13:12:13.213Z,30.61
2018-07-27T13:14:41.745Z,30.69
2018-07-27T13:17:10.213Z,30.71
2018-07-27T13:19:38.684Z,30.63
2018-07-27T13:22:07.293Z,30.65
2018-07-27T13:27:04.292Z,30.69
2018-07-27T13:29:32.757Z,30.68
2018-07-27T13:32:01.226Z,30.68
2018-07-27T13:34:35.985Z,30.68
2018-07-27T13:37:04.891Z,30.69
2018-07-27T13:39:34.029Z,30.68
2018-07-27T13:42:03.505Z,30.67
2018-07-27T13:44:33.237Z,30.66
2018-07-27T13:47:02.226Z,30.67
2018-07-27T13:49:30.739Z,30.65
2018-07-27T13:51:59.718Z,30.67
2018-07-27T13:54:29.136Z,30.67
2018-07-27T13:56:57.604Z,30.55
2018-07-27T13:59:26.056Z,30.55
2018-07-27T14:01:54.513Z,30.54
2018-07-27T14:04:23.004Z,30.55
2018-07-27T14:06:52.716Z,30.52
2018-07-27T14:09:21.171Z,30.55
2018-07-27T14:11:49.635Z,30.55
2018-07-27T14:14:18.167Z,30.66
2018-07-27T14:16:46.628Z,30.68
2018-07-27T14:19:16.167Z,30.68
2018-07-27T14:21:44.691Z,30.69
2018-07-27T14:24:13.137Z,30.59
2018-07-27T14:26:41.628Z,30.59
2018-07-27T14:29:10.111Z,30.72
2018-07-27T14:31:38.630Z,30.75
2018-07-27T14:34:07.648Z,30.78
2018-07-27T14:36:36.103Z,30.80
2018-07-27T14:39:07.292Z,30.80
2018-07-27T14:41:35.887Z,30.79
2018-07-27T14:44:04.640Z,30.82
2018-07-27T14:46:33.445Z,30.83
2018-07-27T14:49:01.908Z,30.84
2018-07-27T14:51:30.399Z,30.85
2018-07-27T14:53:58.851Z,30.85
2018-07-27T14:56:27.317Z,30.83
2018-07-27T14:58:55.812Z,30.84
2018-07-27T15:01:24.289Z,30.85
2018-07-27T15:03:52.774Z,30.86
2018-07-27T15:06:21.224Z,30.86
2018-07-27T15:08:49.701Z,30.86
2018-07-27T15:11:18.185Z,30.87
2018-07-27T15:13:46.680Z,30.88
2018-07-27T15:16:15.233Z,30.88
2018-07-27T15:18:43.675Z,30.14
2018-07-27T15:21:12.198Z,30.90
2018-07-27T15:23:40.737Z,30.93
2018-07-27T15:26:09.440Z,30.93
2018-07-27T15:28:38.427Z,30.94
2018-07-27T15:31:07.197Z,30.94
2018-07-27T15:33:35.684Z,30.93
2018-07-27T15:36:04.159Z,30.94
2018-07-27T15:38:32.648Z,30.91
2018-07-27T15:41:01.152Z,30.87
2018-07-27T15:43:29.636Z,30.84
2018-07-27T15:45:58.107Z,30.47
2018-07-27T15:48:26.804Z,30.83
2018-07-27T15:50:55.298Z,30.85
2018-07-27T15:53:23.793Z,30.86
2018-07-27T15:55:52.384Z,30.84
2018-07-27T15:58:20.919Z,30.89
2018-07-27T16:00:49.428Z,30.92
2018-07-27T16:03:17.962Z,30.94
2018-07-27T16:05:46.505Z,30.95
2018-07-27T16:08:15.045Z,30.95
2018-07-27T16:10:43.568Z,30.92
2018-07-27T16:13:12.116Z,30.88
2018-07-27T16:15:40.628Z,30.86
2018-07-27T16:18:09.205Z,30.83
2018-07-27T16:20:37.697Z,30.83
2018-07-27T16:23:06.331Z,30.82
2018-07-27T16:25:34.883Z,30.86
2018-07-27T16:28:03.469Z,30.86
2018-07-27T16:30:32.094Z,30.87
2018-07-27T16:33:00.703Z,30.89
2018-07-27T16:35:29.289Z,30.89
2018-07-27T16:37:57.864Z,30.92
2018-07-27T16:40:26.456Z,30.93
2018-07-27T16:42:55.008Z,30.93
2018-07-27T16:45:23.552Z,30.94
2018-07-27T16:47:52.100Z,30.93
2018-07-27T16:50:20.696Z,30.89
2018-07-27T16:52:49.325Z,30.89
2018-07-27T16:55:18.589Z,30.93
2018-07-27T16:57:47.479Z,31.00
2018-07-27T17:00:16.198Z,31.03
2018-07-27T17:02:45.082Z,31.03
2018-07-27T17:05:13.886Z,30.99
2018-07-27T17:07:42.687Z,30.99
2018-07-27T17:10:11.565Z,31.00
2018-07-27T17:12:40.360Z,30.97
2018-07-27T17:15:09.048Z,30.97
2018-07-27T17:17:37.840Z,30.96
2018-07-27T17:20:07.327Z,30.96
2018-07-27T17:22:36.256Z,30.96
2018-07-27T17:25:05.362Z,30.98
2018-07-27T17:27:34.124Z,30.93
2018-07-27T17:30:02.858Z,30.91
2018-07-27T17:32:31.608Z,30.90
2018-07-27T17:35:00.425Z,30.89
2018-07-27T17:37:29.255Z,30.88
2018-07-27T17:39:57.934Z,30.88
2018-07-27T17:42:26.520Z,30.89
2018-07-27T17:44:55.102Z,30.86
2018-07-27T17:47:23.641Z,30.87
2018-07-27T17:49:52.287Z,30.86
2018-07-27T17:52:20.804Z,30.85
2018-07-27T17:54:49.337Z,30.84
2018-07-27T17:57:17.985Z,30.81
2018-07-27T17:59:46.671Z,30.80
2018-07-27T18:02:15.276Z,30.81
2018-07-27T18:04:43.865Z,30.82
2018-07-27T18:07:12.509Z,30.82
2018-07-27T18:09:41.093Z,30.82
2018-07-27T18:12:09.656Z,30.81
2018-07-27T18:14:38.293Z,30.81
2018-07-27T18:17:06.866Z,30.79
2018-07-27T18:19:35.429Z,30.78
2018-07-27T18:22:04.064Z,30.78
2018-07-27T18:24:32.667Z,30.75
2018-07-27T18:27:01.152Z,30.75
2018-07-27T18:29:29.768Z,30.75
2018-07-27T18:31:58.417Z,30.74
2018-07-27T18:34:26.989Z,30.75
2018-07-27T18:36:55.769Z,30.74
2018-07-27T18:39:24.464Z,30.73
2018-07-27T18:41:52.988Z,30.74
2018-07-27T18:44:21.637Z,30.74
2018-07-27T18:46:50.215Z,30.73
2018-07-27T18:49:18.781Z,30.71
2018-07-27T18:51:47.336Z,30.69
2018-07-27T18:54:15.932Z,30.67
2018-07-27T18:56:44.483Z,30.66
2018-07-27T18:59:12.991Z,30.64
2018-07-27T19:01:41.476Z,30.63
2018-07-27T19:04:09.952Z,30.62
2018-07-27T19:06:38.777Z,30.59
2018-07-27T19:09:09.889Z,30.60
2018-07-27T19:11:38.454Z,30.58
2018-07-27T19:14:07.025Z,30.56
2018-07-27T19:16:35.499Z,30.55
2018-07-27T19:19:04.028Z,30.53
2018-07-27T19:21:32.491Z,30.54
2018-07-27T19:24:00.961Z,30.54
2018-07-27T19:26:29.431Z,30.53
2018-07-27T19:28:57.969Z,30.53
2018-07-27T19:31:26.472Z,30.52
2018-07-27T19:33:54.942Z,30.53
2018-07-27T19:36:23.402Z,30.52
2018-07-27T19:38:51.924Z,30.36
2018-07-27T19:41:20.417Z,30.32
2018-07-27T19:43:49.087Z,30.29
2018-07-27T19:46:17.728Z,30.29
2018-07-27T19:48:46.321Z,30.29
2018-07-27T19:51:14.936Z,30.24
2018-07-27T19:53:43.504Z,30.23
2018-07-27T19:56:12.085Z,30.22
2018-07-27T19:58:40.611Z,30.24
2018-07-27T20:01:09.177Z,30.23
2018-07-27T20:03:37.759Z,30.22
2018-07-27T20:06:06.564Z,30.17
2018-07-27T20:08:35.082Z,30.16
2018-07-27T20:11:03.629Z,30.02
2018-07-27T20:13:32.159Z,29.84
2018-07-27T20:16:00.704Z,29.81
2018-07-27T20:18:29.232Z,29.79
2018-07-27T20:20:57.817Z,29.76
2018-07-27T20:23:26.602Z,29.74
2018-07-27T20:25:56.741Z,29.74
2018-07-27T20:28:25.554Z,29.75
2018-07-27T20:30:54.165Z,29.75
2018-07-27T20:33:22.687Z,29.76
2018-07-27T20:35:51.215Z,29.64
2018-07-27T20:38:19.732Z,29.78
2018-07-27T20:40:48.259Z,29.78
2018-07-27T20:43:16.747Z,29.78
2018-07-27T20:45:45.337Z,29.79
2018-07-27T20:48:13.842Z,29.79
2018-07-27T20:50:42.401Z,29.80
2018-07-27T20:53:10.942Z,29.79
2018-07-27T20:55:39.545Z,29.80
2018-07-27T20:58:08.075Z,29.81
2018-07-27T21:00:36.613Z,29.82
2018-07-27T21:03:06.056Z,29.84
2018-07-27T21:05:34.602Z,29.85
2018-07-27T21:08:03.161Z,29.86
2018-07-27T21:10:31.819Z,29.84
2018-07-27T21:13:00.377Z,29.84
2018-07-27T21:15:28.928Z,29.83
2018-07-27T21:17:57.520Z,29.82
2018-07-27T21:20:26.108Z,29.82
2018-07-27T21:22:54.779Z,29.83
2018-07-27T21:25:23.449Z,29.80
2018-07-27T21:27:52.061Z,29.82
2018-07-27T21:30:20.637Z,29.83
2018-07-27T21:32:49.288Z,29.82
2018-07-27T21:35:17.931Z,29.82
2018-07-27T21:37:46.556Z,29.82
2018-07-27T21:40:15.072Z,29.81
2018-07-27T21:42:43.632Z,29.81
2018-07-27T21:45:12.300Z,29.80
2018-07-27T21:47:40.840Z,29.81
2018-07-27T21:50:09.564Z,29.81
2018-07-27T21:52:38.404Z,29.80
2018-07-27T21:55:06.991Z,29.82
2018-07-27T21:57:35.462Z,29.81
2018-07-27T22:00:04.078Z,29.80
2018-07-27T22:02:32.613Z,29.78
2018-07-27T22:05:01.120Z,29.77
2018-07-27T22:07:29.693Z,29.76
2018-07-27T22:09:58.221Z,29.76
2018-07-27T22:12:27.240Z,29.75
2018-07-27T22:14:55.865Z,29.74
2018-07-27T22:17:24.506Z,29.75
2018-07-27T22:19:53.096Z,29.74
2018-07-27T22:22:21.731Z,29.74
2018-07-27T22:24:50.330Z,29.73
2018-07-27T22:27:18.987Z,29.73
2018-07-27T22:29:47.629Z,29.73
2018-07-27T22:32:16.158Z,29.71
2018-07-27T22:34:44.715Z,29.71
2018-07-27T22:37:13.227Z,29.70
2018-07-27T22:39:41.702Z,29.70
2018-07-27T22:42:10.263Z,29.69
2018-07-27T22:44:38.751Z,29.68
2018-07-27T22:47:07.284Z,29.69
2018-07-27T22:49:35.859Z,29.68
2018-07-27T22:52:04.391Z,29.66
2018-07-27T22:54:32.992Z,29.67
2018-07-27T22:57:01.610Z,17.90
2018-07-27T22:59:30.122Z,29.68
2018-07-27T23:01:58.940Z,29.67
2018-07-27T23:04:27.524Z,29.67
2018-07-27T23:06:56.160Z,29.66
2018-07-27T23:09:24.795Z,29.68
2018-07-27T23:11:53.265Z,29.68
2018-07-27T23:14:21.747Z,29.67
2018-07-27T23:16:50.242Z,29.66
2018-07-27T23:19:18.759Z,29.65
2018-07-27T23:21:47.330Z,29.64
2018-07-27T23:24:15.848Z,29.65
2018-07-27T23:26:44.586Z,29.65
2018-07-27T23:29:13.117Z,29.64
2018-07-27T23:31:41.660Z,29.64
2018-07-27T23:34:10.201Z,29.64
2018-07-27T23:36:38.865Z,29.64
2018-07-27T23:39:10.433Z,29.64
2018-07-27T23:41:39.118Z,29.63
2018-07-27T23:44:07.645Z,29.62
2018-07-27T23:46:36.232Z,29.61
2018-07-27T23:49:04.761Z,29.60
2018-07-27T23:51:33.779Z,29.60
2018-07-27T23:54:02.235Z,29.61
2018-07-27T23:56:30.800Z,29.60
2018-07-27T23:58:59.463Z,29.59
